Flight Track Log - Related Links

Times and Time Zones

All times are in EDT time to prevent confusion due to time zone crossing. See the EMD27 flight status page for this flight to view local times or setup timezone preferences in your user account.

Time Position Orientation Groundspeed Altitude Reporting Facility
EDT Latitude Longitude Course Direction KTS MPH feet Rate Location/Type
Fri 04:25:55 AM 33.8500 -84.3167 North 142 163 2,000  Level Atlanta TRACON
Fri 04:26:55 AM 33.8833 -84.3500 320° Northwest 135 155 3,000 1,000 Climbing Atlanta TRACON
Fri 04:27:55 AM 33.9333 -84.3667 345° North 165 190 4,000 950 Climbing Atlanta TRACON
Fri 04:28:55 AM 33.9667 -84.3833 337° Northwest 173 199 4,900 950 Climbing Atlanta TRACON
Fri 04:29:55 AM 34.0167 -84.3833 360° North 184 212 5,900 1,000 Climbing Atlanta TRACON
Fri 04:31:00 AM 34.1586 -84.3000 North  Level FlightAware Approximate
Fri 04:31:37 AM 34.1089 -84.4050 349° North 200 230 7,600  Level Atlanta Center
Fri 04:32:37 AM 34.1569 -84.4128 352° North 185 213 8,400 850 Climbing Atlanta Center
Fri 04:33:37 AM 34.2050 -84.4081 North 175 201 9,300 850 Climbing Atlanta Center
Fri 04:34:37 AM 34.2550 -84.4058 North 175 201 10,100 1,000 Climbing Atlanta Center
Fri 04:35:37 AM 34.3050 -84.4008 North 175 201 11,300 1,100 Climbing Atlanta Center
Fri 04:36:37 AM 34.3553 -84.3961 North 180 207 12,300 1,000 Climbing Atlanta Center
Fri 04:37:37 AM 34.4053 -84.3914 North 180 207 13,300 950 Climbing Atlanta Center
Fri 04:38:37 AM 34.4553 -84.3889 North 180 207 14,200 750 Climbing Atlanta Center
Fri 04:39:37 AM 34.5075 -84.3842 North 185 213 14,800 650 Climbing Atlanta Center
Fri 04:40:37 AM 34.5639 -84.3792 North 192 221 15,500 600 Climbing Atlanta Center
Fri 04:41:37 AM 34.6139 -84.3744 North 198 228 16,000 600 Climbing Atlanta Center
Fri 04:42:37 AM 34.6725 -84.3722 North 198 228 16,700 500 Climbing Atlanta Center
Fri 04:43:37 AM 34.7331 -84.3675 North 198 228 17,000 150 Climbing Atlanta Center
Fri 04:44:37 AM 34.7978 -84.3625 North 222 255 17,000  Level Atlanta Center
Fri 04:45:37 AM 34.8667 -84.3578 North 238 274 17,000  Level Atlanta Center
Fri 04:46:37 AM 34.9356 -84.3503 North 238 274 17,000  Level Atlanta Center
Fri 04:47:37 AM 35.0044 -84.3456 North 238 274 17,000  Level Atlanta Center
Fri 04:48:37 AM 35.0733 -84.3408 North 238 274 17,000  Level Atlanta Center
Fri 04:49:37 AM 35.1442 -84.3358 North 238 274 17,000  Level Atlanta Center
Fri 04:50:37 AM 35.2108 -84.3286 North 243 280 17,000  Level Atlanta Center
Fri 04:51:37 AM 35.2797 -84.3236 North 243 280 17,000  Level Atlanta Center
Fri 04:52:37 AM 35.3508 -84.3164 North 243 280 17,000  Level Atlanta Center
Fri 04:53:37 AM 35.4217 -84.3139 North 243 280 17,000  Level Atlanta Center
Fri 04:54:37 AM 35.4906 -84.3067 North 248 285 17,000  Level Atlanta Center
Fri 04:55:37 AM 35.5636 -84.3017 North 253 291 17,000  Level Atlanta Center
Fri 04:56:37 AM 35.6344 -84.2942 North 253 291 17,000  Level Atlanta Center
Fri 04:57:37 AM 35.7014 -84.2919 North 253 291 17,000  Level Atlanta Center
Fri 04:58:37 AM 35.7703 -84.2844 North 253 291 17,000 -150 Level Atlanta Center
Fri 04:59:37 AM 35.8369 -84.2794 North 253 291 16,700 -800 Descending Atlanta Center
Fri 05:00:37 AM 35.9142 -84.2747 North 253 291 15,400 -1,300 Descending Atlanta Center
Fri 05:01:37 AM 35.9933 -84.2672 North 272 313 14,100 -1,286 Descending Atlanta Center
Fri 05:03:11 AM 36.1197 -84.2556 North 288 331 12,100 -1,277 Descending Indianapolis Center
Fri 05:04:12 AM 36.1928 -84.2486 North 269 310 10,800 -1,377 Descending Indianapolis Center
Fri 05:05:13 AM 36.2636 -84.2436 North 258 297 9,300 -1,438 Descending Indianapolis Center
Fri 05:06:13 AM 36.3347 -84.2372 North 257 296 7,900 -1,091 Descending Indianapolis Center
Fri 05:07:14 AM 36.4044 -84.2322 North 253 291 7,100 -443 Descending Indianapolis Center
Fri 05:08:15 AM 36.4669 -84.2269 North 237 273 7,000 -50 Descending Indianapolis Center
Fri 05:09:15 AM 36.5261 -84.2222 North 214 246 7,000 -545 Level Indianapolis Center
Fri 05:10:16 AM 36.5969 -84.2161 North 215 247 5,900 -1,230 Descending Indianapolis Center
Fri 05:11:17 AM 36.6611 -84.2094 North 226 260 4,500 -1,041 Descending Indianapolis Center
Fri 05:12:17 AM 36.7133 -84.2006 North 191 220 3,800 -744 Descending Indianapolis Center
Fri 05:13:18 AM 36.7622 -84.1900 10° North 176 203 3,000 -787 Descending Indianapolis Center

Login

Don't have an account? Register now (free) for customized features, flight alerts, and more!